sensor_id;sensor_type;location;lat;lon;timestamp;pressure;altitude;pressure_sealevel;temperature;humidity
59063;BME280;44851;45.648;9.004;2022-12-18T00:01:48;100060.16;;;5.30;78.73
59063;BME280;44851;45.648;9.004;2022-12-18T00:04:24;100055.97;;;5.27;78.10
59063;BME280;44851;45.648;9.004;2022-12-18T00:06:51;100054.16;;;5.29;78.83
59063;BME280;44851;45.648;9.004;2022-12-18T00:09:16;100062.28;;;5.22;78.75
59063;BME280;44851;45.648;9.004;2022-12-18T00:11:42;100072.47;;;5.25;79.10
59063;BME280;44851;45.648;9.004;2022-12-18T00:14:09;100069.28;;;5.20;78.99
59063;BME280;44851;45.648;9.004;2022-12-18T00:16:35;100065.19;;;5.16;79.06
59063;BME280;44851;45.648;9.004;2022-12-18T00:19:02;100067.63;;;5.19;79.15
59063;BME280;44851;45.648;9.004;2022-12-18T00:21:29;100068.69;;;5.15;78.87
59063;BME280;44851;45.648;9.004;2022-12-18T00:23:55;100076.44;;;5.15;78.67
59063;BME280;44851;45.648;9.004;2022-12-18T00:26:29;100075.75;;;5.11;77.82
59063;BME280;44851;45.648;9.004;2022-12-18T00:28:57;100080.09;;;5.10;78.83
59063;BME280;44851;45.648;9.004;2022-12-18T00:31:24;100080.56;;;5.19;79.08
59063;BME280;44851;45.648;9.004;2022-12-18T00:33:50;100082.97;;;5.22;79.07
59063;BME280;44851;45.648;9.004;2022-12-18T00:36:21;100083.13;;;5.19;78.27
59063;BME280;44851;45.648;9.004;2022-12-18T00:38:47;100099.84;;;5.11;78.75
59063;BME280;44851;45.648;9.004;2022-12-18T00:41:14;100096.97;;;5.18;79.35
59063;BME280;44851;45.648;9.004;2022-12-18T00:44:01;100093.09;;;5.09;78.36
59063;BME280;44851;45.648;9.004;2022-12-18T00:46:27;100100.63;;;5.14;78.25
59063;BME280;44851;45.648;9.004;2022-12-18T00:48:52;100102.16;;;5.18;78.37
59063;BME280;44851;45.648;9.004;2022-12-18T00:51:17;100109.28;;;5.13;77.69
59063;BME280;44851;45.648;9.004;2022-12-18T00:53:43;100105.94;;;5.10;78.10
59063;BME280;44851;45.648;9.004;2022-12-18T00:56:08;100107.47;;;5.15;77.94
59063;BME280;44851;45.648;9.004;2022-12-18T00:58:34;100116.72;;;5.19;77.70
59063;BME280;44851;45.648;9.004;2022-12-18T01:00:59;100112.63;;;5.15;77.16
59063;BME280;44851;45.648;9.004;2022-12-18T01:03:24;100114.28;;;5.16;77.16
59063;BME280;44851;45.648;9.004;2022-12-18T01:05:50;100111.09;;;5.10;76.88
59063;BME280;44851;45.648;9.004;2022-12-18T01:08:15;100122.53;;;5.06;76.90
59063;BME280;44851;45.648;9.004;2022-12-18T01:10:41;100113.53;;;5.14;77.31
59063;BME280;44851;45.648;9.004;2022-12-18T01:13:06;100124.63;;;5.16;76.68
59063;BME280;44851;45.648;9.004;2022-12-18T01:15:32;100128.13;;;5.15;77.05
59063;BME280;44851;45.648;9.004;2022-12-18T01:17:57;100131.53;;;5.15;76.51
59063;BME280;44851;45.648;9.004;2022-12-18T01:20:22;100131.78;;;5.10;76.96
59063;BME280;44851;45.648;9.004;2022-12-18T01:22:48;100148.81;;;5.15;76.13
59063;BME280;44851;45.648;9.004;2022-12-18T01:25:13;100151.38;;;5.15;76.81
59063;BME280;44851;45.648;9.004;2022-12-18T01:27:39;100151.16;;;5.19;77.06
59063;BME280;44851;45.648;9.004;2022-12-18T01:30:05;100162.66;;;5.14;76.44
59063;BME280;44851;45.648;9.004;2022-12-18T01:32:31;100161.59;;;5.18;76.47
59063;BME280;44851;45.648;9.004;2022-12-18T01:34:57;100163.38;;;5.16;76.65
59063;BME280;44851;45.648;9.004;2022-12-18T01:37:22;100158.38;;;5.13;76.84
59063;BME280;44851;45.648;9.004;2022-12-18T01:39:47;100167.19;;;5.08;76.67
59063;BME280;44851;45.648;9.004;2022-12-18T01:42:15;100172.19;;;5.11;76.72
59063;BME280;44851;45.648;9.004;2022-12-18T01:47:38;100168.94;;;5.08;75.36
59063;BME280;44851;45.648;9.004;2022-12-18T01:52:36;100177.22;;;5.15;76.97
59063;BME280;44851;45.648;9.004;2022-12-18T01:55:04;100181.66;;;5.13;76.35
59063;BME280;44851;45.648;9.004;2022-12-18T01:57:30;100183.47;;;5.10;75.87
59063;BME280;44851;45.648;9.004;2022-12-18T02:00:00;100183.31;;;5.14;76.85
59063;BME280;44851;45.648;9.004;2022-12-18T02:02:28;100186.13;;;5.09;77.06
59063;BME280;44851;45.648;9.004;2022-12-18T02:04:54;100189.72;;;5.06;76.53
59063;BME280;44851;45.648;9.004;2022-12-18T02:07:43;100182.94;;;5.04;75.96
59063;BME280;44851;45.648;9.004;2022-12-18T02:10:31;100183.94;;;5.01;76.81
59063;BME280;44851;45.648;9.004;2022-12-18T02:19:15;100190.69;;;5.04;76.24
59063;BME280;44851;45.648;9.004;2022-12-18T02:21:52;100188.84;;;5.06;76.81
59063;BME280;44851;45.648;9.004;2022-12-18T02:24:37;100176.09;;;5.03;76.49
59063;BME280;44851;45.648;9.004;2022-12-18T02:27:06;100178.16;;;4.96;77.05
59063;BME280;44851;45.648;9.004;2022-12-18T02:29:39;100170.09;;;5.02;77.21
59063;BME280;44851;45.648;9.004;2022-12-18T02:32:11;100170.53;;;4.93;76.78
59063;BME280;44851;45.648;9.004;2022-12-18T02:34:40;100176.94;;;5.03;77.46
59063;BME280;44851;45.648;9.004;2022-12-18T02:37:09;100175.41;;;4.99;76.86
59063;BME280;44851;45.648;9.004;2022-12-18T02:39:37;100180.88;;;4.93;77.41
59063;BME280;44851;45.648;9.004;2022-12-18T02:42:04;100180.88;;;4.93;76.93
59063;BME280;44851;45.648;9.004;2022-12-18T02:44:34;100187.38;;;4.83;76.97
59063;BME280;44851;45.648;9.004;2022-12-18T02:47:00;100207.13;;;4.84;76.34
59063;BME280;44851;45.648;9.004;2022-12-18T02:49:36;100204.59;;;5.01;77.09
59063;BME280;44851;45.648;9.004;2022-12-18T02:57:20;100221.16;;;4.97;75.53
59063;BME280;44851;45.648;9.004;2022-12-18T02:59:56;100227.38;;;4.93;75.86
59063;BME280;44851;45.648;9.004;2022-12-18T03:02:36;100215.19;;;4.95;76.80
59063;BME280;44851;45.648;9.004;2022-12-18T03:05:31;100227.50;;;4.90;75.97
59063;BME280;44851;45.648;9.004;2022-12-18T03:08:18;100232.66;;;4.90;76.57
59063;BME280;44851;45.648;9.004;2022-12-18T03:10:50;100235.59;;;5.01;77.47
59063;BME280;44851;45.648;9.004;2022-12-18T03:13:33;100236.06;;;5.09;77.33
59063;BME280;44851;45.648;9.004;2022-12-18T03:16:00;100239.22;;;4.97;77.90
59063;BME280;44851;45.648;9.004;2022-12-18T03:18:51;100237.47;;;4.98;77.71
59063;BME280;44851;45.648;9.004;2022-12-18T03:21:37;100244.53;;;4.94;76.80
59063;BME280;44851;45.648;9.004;2022-12-18T03:24:06;100238.94;;;5.03;77.38
59063;BME280;44851;45.648;9.004;2022-12-18T03:26:34;100245.94;;;5.01;77.81
59063;BME280;44851;45.648;9.004;2022-12-18T03:29:17;100244.94;;;5.04;76.90
59063;BME280;44851;45.648;9.004;2022-12-18T03:31:51;100250.94;;;5.04;77.72
59063;BME280;44851;45.648;9.004;2022-12-18T03:34:29;100249.41;;;5.00;77.17
59063;BME280;44851;45.648;9.004;2022-12-18T03:36:55;100247.44;;;5.05;77.56
59063;BME280;44851;45.648;9.004;2022-12-18T03:39:21;100248.56;;;5.00;77.54
59063;BME280;44851;45.648;9.004;2022-12-18T03:45:10;100250.53;;;4.95;75.83
59063;BME280;44851;45.648;9.004;2022-12-18T03:50:45;100246.38;;;4.92;77.88
59063;BME280;44851;45.648;9.004;2022-12-18T03:55:53;100242.06;;;4.74;77.92
59063;BME280;44851;45.648;9.004;2022-12-18T03:58:23;100254.31;;;4.88;78.40
59063;BME280;44851;45.648;9.004;2022-12-18T04:00:52;100263.66;;;4.90;78.18
59063;BME280;44851;45.648;9.004;2022-12-18T04:03:19;100267.50;;;5.00;78.06
59063;BME280;44851;45.648;9.004;2022-12-18T04:05:45;100265.06;;;4.97;78.18
59063;BME280;44851;45.648;9.004;2022-12-18T04:08:13;100263.41;;;4.96;77.77
59063;BME280;44851;45.648;9.004;2022-12-18T04:10:38;100278.75;;;4.99;77.84
59063;BME280;44851;45.648;9.004;2022-12-18T04:13:04;100277.22;;;4.95;78.07
59063;BME280;44851;45.648;9.004;2022-12-18T04:15:32;100274.09;;;4.89;77.30
59063;BME280;44851;45.648;9.004;2022-12-18T04:17:59;100286.16;;;4.88;77.68
59063;BME280;44851;45.648;9.004;2022-12-18T04:20:24;100285.25;;;4.89;77.39
59063;BME280;44851;45.648;9.004;2022-12-18T04:22:51;100275.69;;;4.91;78.58
59063;BME280;44851;45.648;9.004;2022-12-18T04:25:16;100276.94;;;5.01;78.43
59063;BME280;44851;45.648;9.004;2022-12-18T04:27:42;100274.56;;;4.97;78.23
59063;BME280;44851;45.648;9.004;2022-12-18T04:30:08;100281.41;;;4.98;78.32
59063;BME280;44851;45.648;9.004;2022-12-18T04:32:34;100291.19;;;4.91;77.89
59063;BME280;44851;45.648;9.004;2022-12-18T04:34:59;100301.41;;;4.75;77.86
59063;BME280;44851;45.648;9.004;2022-12-18T04:37:25;100301.53;;;4.91;78.90
59063;BME280;44851;45.648;9.004;2022-12-18T04:39:50;100299.91;;;4.89;77.52
59063;BME280;44851;45.648;9.004;2022-12-18T04:42:16;100311.88;;;4.91;78.45
59063;BME280;44851;45.648;9.004;2022-12-18T04:44:41;100315.56;;;4.85;78.28
59063;BME280;44851;45.648;9.004;2022-12-18T04:47:06;100325.53;;;4.93;77.85
59063;BME280;44851;45.648;9.004;2022-12-18T04:49:32;100315.28;;;4.92;78.18
59063;BME280;44851;45.648;9.004;2022-12-18T04:51:58;100314.88;;;4.82;77.71
59063;BME280;44851;45.648;9.004;2022-12-18T04:54:23;100320.94;;;4.81;78.40
59063;BME280;44851;45.648;9.004;2022-12-18T04:56:49;100324.91;;;4.88;78.34
59063;BME280;44851;45.648;9.004;2022-12-18T04:59:14;100335.94;;;4.92;78.23
59063;BME280;44851;45.648;9.004;2022-12-18T05:01:40;100337.53;;;4.94;78.39
59063;BME280;44851;45.648;9.004;2022-12-18T05:04:05;100329.94;;;4.91;78.72
59063;BME280;44851;45.648;9.004;2022-12-18T05:06:30;100334.53;;;4.84;78.25
59063;BME280;44851;45.648;9.004;2022-12-18T05:08:56;100347.03;;;4.94;78.50
59063;BME280;44851;45.648;9.004;2022-12-18T05:11:21;100348.72;;;4.95;78.35
59063;BME280;44851;45.648;9.004;2022-12-18T05:13:47;100345.56;;;4.88;78.33
59063;BME280;44851;45.648;9.004;2022-12-18T05:16:13;100351.44;;;4.92;78.47
59063;BME280;44851;45.648;9.004;2022-12-18T05:18:39;100353.25;;;4.90;78.65
59063;BME280;44851;45.648;9.004;2022-12-18T05:21:05;100353.19;;;4.91;78.47
59063;BME280;44851;45.648;9.004;2022-12-18T05:23:30;100350.47;;;4.94;78.35
59063;BME280;44851;45.648;9.004;2022-12-18T05:26:01;100359.13;;;4.93;78.39
59063;BME280;44851;45.648;9.004;2022-12-18T05:28:28;100358.22;;;4.94;78.51
59063;BME280;44851;45.648;9.004;2022-12-18T05:30:57;100363.09;;;5.00;78.41
59063;BME280;44851;45.648;9.004;2022-12-18T05:33:24;100361.41;;;4.99;78.34
59063;BME280;44851;45.648;9.004;2022-12-18T05:35:51;100365.91;;;4.96;78.46
59063;BME280;44851;45.648;9.004;2022-12-18T05:38:17;100369.75;;;4.87;78.17
59063;BME280;44851;45.648;9.004;2022-12-18T05:40:43;100377.56;;;4.85;78.06
59063;BME280;44851;45.648;9.004;2022-12-18T05:43:09;100377.34;;;4.90;77.53
59063;BME280;44851;45.648;9.004;2022-12-18T05:45:37;100380.72;;;4.92;78.28
59063;BME280;44851;45.648;9.004;2022-12-18T05:48:03;100384.22;;;4.91;77.83
59063;BME280;44851;45.648;9.004;2022-12-18T05:50:29;100385.03;;;4.92;77.70
59063;BME280;44851;45.648;9.004;2022-12-18T05:52:54;100387.53;;;4.93;77.62
59063;BME280;44851;45.648;9.004;2022-12-18T05:55:20;100387.66;;;4.90;77.33
59063;BME280;44851;45.648;9.004;2022-12-18T05:57:45;100387.66;;;4.90;77.15
59063;BME280;44851;45.648;9.004;2022-12-18T06:00:11;100391.03;;;4.92;77.92
59063;BME280;44851;45.648;9.004;2022-12-18T06:02:36;100392.91;;;4.89;77.81
59063;BME280;44851;45.648;9.004;2022-12-18T06:05:02;100393.69;;;4.91;77.70
59063;BME280;44851;45.648;9.004;2022-12-18T06:07:27;100390.88;;;4.95;78.18
59063;BME280;44851;45.648;9.004;2022-12-18T06:09:53;100397.75;;;4.96;77.95
59063;BME280;44851;45.648;9.004;2022-12-18T06:12:18;100401.28;;;4.94;77.82
59063;BME280;44851;45.648;9.004;2022-12-18T06:14:44;100411.00;;;4.89;77.15
59063;BME280;44851;45.648;9.004;2022-12-18T06:17:09;100406.38;;;4.95;77.72
59063;BME280;44851;45.648;9.004;2022-12-18T06:19:35;100404.88;;;4.91;77.41
59063;BME280;44851;45.648;9.004;2022-12-18T06:22:00;100413.38;;;4.93;77.65
59063;BME280;44851;45.648;9.004;2022-12-18T06:24:25;100420.69;;;4.83;77.63
59063;BME280;44851;45.648;9.004;2022-12-18T06:26:51;100420.06;;;4.78;76.79
59063;BME280;44851;45.648;9.004;2022-12-18T06:29:16;100427.16;;;4.73;77.41
59063;BME280;44851;45.648;9.004;2022-12-18T06:31:42;100426.34;;;4.73;77.32
59063;BME280;44851;45.648;9.004;2022-12-18T06:34:07;100430.59;;;4.74;77.83
59063;BME280;44851;45.648;9.004;2022-12-18T06:36:32;100438.78;;;4.83;78.04
59063;BME280;44851;45.648;9.004;2022-12-18T06:38:58;100434.72;;;4.78;77.52
59063;BME280;44851;45.648;9.004;2022-12-18T06:41:23;100437.03;;;4.84;77.36
59063;BME280;44851;45.648;9.004;2022-12-18T06:43:49;100443.09;;;4.83;77.11
59063;BME280;44851;45.648;9.004;2022-12-18T06:46:14;100436.41;;;4.79;76.75
59063;BME280;44851;45.648;9.004;2022-12-18T06:48:40;100439.88;;;4.78;77.43
59063;BME280;44851;45.648;9.004;2022-12-18T06:51:05;100438.50;;;4.90;77.83
59063;BME280;44851;45.648;9.004;2022-12-18T06:53:32;100444.50;;;4.90;77.96
59063;BME280;44851;45.648;9.004;2022-12-18T06:56:05;100451.94;;;4.98;77.25
59063;BME280;44851;45.648;9.004;2022-12-18T06:58:32;100457.94;;;4.98;77.84
59063;BME280;44851;45.648;9.004;2022-12-18T07:01:02;100461.44;;;4.97;78.11
59063;BME280;44851;45.648;9.004;2022-12-18T07:03:28;100464.50;;;4.87;77.39
59063;BME280;44851;45.648;9.004;2022-12-18T07:05:53;100463.31;;;4.94;78.45
59063;BME280;44851;45.648;9.004;2022-12-18T07:08:19;100462.59;;;4.90;77.56
59063;BME280;44851;45.648;9.004;2022-12-18T07:10:44;100467.06;;;4.87;77.73
59063;BME280;44851;45.648;9.004;2022-12-18T07:13:10;100475.66;;;4.87;77.55
59063;BME280;44851;45.648;9.004;2022-12-18T07:15:36;100478.59;;;4.98;78.04
59063;BME280;44851;45.648;9.004;2022-12-18T07:18:01;100477.91;;;4.95;78.31
59063;BME280;44851;45.648;9.004;2022-12-18T07:20:27;100483.91;;;4.95;78.34
59063;BME280;44851;45.648;9.004;2022-12-18T07:22:52;100497.59;;;4.97;78.17
59063;BME280;44851;45.648;9.004;2022-12-18T07:25:18;100496.69;;;4.98;78.25
59063;BME280;44851;45.648;9.004;2022-12-18T07:27:43;100507.78;;;5.00;78.44
59063;BME280;44851;45.648;9.004;2022-12-18T07:30:09;100506.94;;;5.00;78.37
59063;BME280;44851;45.648;9.004;2022-12-18T07:32:35;100516.72;;;4.93;77.57
59063;BME280;44851;45.648;9.004;2022-12-18T07:35:00;100525.25;;;4.95;78.25
59063;BME280;44851;45.648;9.004;2022-12-18T07:37:25;100528.34;;;5.03;77.97
59063;BME280;44851;45.648;9.004;2022-12-18T07:39:51;100531.13;;;4.99;77.26
59063;BME280;44851;45.648;9.004;2022-12-18T07:42:16;100532.78;;;5.00;77.62
59063;BME280;44851;45.648;9.004;2022-12-18T07:45:00;100542.03;;;5.05;78.22
59063;BME280;44851;45.648;9.004;2022-12-18T07:47:26;100553.41;;;5.01;77.93
59063;BME280;44851;45.648;9.004;2022-12-18T07:49:52;100553.28;;;5.04;78.26
59063;BME280;44851;45.648;9.004;2022-12-18T07:52:17;100554.75;;;5.10;78.20
59063;BME280;44851;45.648;9.004;2022-12-18T07:54:43;100556.50;;;5.09;77.88
59063;BME280;44851;45.648;9.004;2022-12-18T07:57:08;100554.91;;;5.07;78.35
59063;BME280;44851;45.648;9.004;2022-12-18T07:59:34;100554.06;;;5.06;78.16
59063;BME280;44851;45.648;9.004;2022-12-18T08:01:59;100562.44;;;5.11;77.61
59063;BME280;44851;45.648;9.004;2022-12-18T08:04:25;100566.06;;;5.07;77.75
59063;BME280;44851;45.648;9.004;2022-12-18T08:06:51;100569.56;;;5.06;77.80
59063;BME280;44851;45.648;9.004;2022-12-18T08:09:17;100564.63;;;5.00;77.38
59063;BME280;44851;45.648;9.004;2022-12-18T08:11:42;100573.75;;;5.09;78.14
59063;BME280;44851;45.648;9.004;2022-12-18T08:14:08;100567.47;;;5.15;78.02
59063;BME280;44851;45.648;9.004;2022-12-18T08:16:33;100574.47;;;5.13;77.36
59063;BME280;44851;45.648;9.004;2022-12-18T08:18:59;100576.16;;;5.14;77.60
59063;BME280;44851;45.648;9.004;2022-12-18T08:21:28;100584.00;;;5.10;76.78
59063;BME280;44851;45.648;9.004;2022-12-18T08:23:56;100584.66;;;5.16;77.31
59063;BME280;44851;45.648;9.004;2022-12-18T08:26:23;100592.16;;;5.22;77.28
59063;BME280;44851;45.648;9.004;2022-12-18T08:28:49;100591.38;;;5.20;77.34
59063;BME280;44851;45.648;9.004;2022-12-18T08:31:15;100604.31;;;5.20;77.44
59063;BME280;44851;45.648;9.004;2022-12-18T08:33:41;100596.56;;;5.20;76.54
59063;BME280;44851;45.648;9.004;2022-12-18T08:36:08;100596.56;;;5.20;76.41
59063;BME280;44851;45.648;9.004;2022-12-18T08:38:34;100600.53;;;5.27;77.03
59063;BME280;44851;45.648;9.004;2022-12-18T08:41:04;100596.16;;;5.29;78.05
59063;BME280;44851;45.648;9.004;2022-12-18T08:43:30;100595.97;;;5.33;78.53
59063;BME280;44851;45.648;9.004;2022-12-18T08:46:14;100596.00;;;5.32;77.67
59063;BME280;44851;45.648;9.004;2022-12-18T08:48:40;100598.56;;;5.33;76.77
59063;BME280;44851;45.648;9.004;2022-12-18T08:51:05;100596.72;;;5.35;76.33
59063;BME280;44851;45.648;9.004;2022-12-18T08:53:31;100608.44;;;5.44;77.19
59063;BME280;44851;45.648;9.004;2022-12-18T08:55:56;100606.31;;;5.33;76.20
59063;BME280;44851;45.648;9.004;2022-12-18T08:58:22;100615.53;;;5.39;77.16
59063;BME280;44851;45.648;9.004;2022-12-18T09:00:47;100617.03;;;5.45;77.45
59063;BME280;44851;45.648;9.004;2022-12-18T09:03:17;100621.34;;;5.44;77.34
59063;BME280;44851;45.648;9.004;2022-12-18T09:05:45;100624.59;;;5.49;77.76
59063;BME280;44851;45.648;9.004;2022-12-18T09:08:11;100622.38;;;5.40;76.73
59063;BME280;44851;45.648;9.004;2022-12-18T09:10:44;100626.25;;;5.50;74.90
59063;BME280;44851;45.648;9.004;2022-12-18T09:13:11;100628.06;;;5.48;75.46
59063;BME280;44851;45.648;9.004;2022-12-18T09:15:47;100631.44;;;5.50;74.13
59063;BME280;44851;45.648;9.004;2022-12-18T09:18:15;100642.16;;;5.41;74.62
59063;BME280;44851;45.648;9.004;2022-12-18T09:20:41;100640.22;;;5.46;73.51
59063;BME280;44851;45.648;9.004;2022-12-18T09:23:06;100645.28;;;5.49;72.73
59063;BME280;44851;45.648;9.004;2022-12-18T09:25:33;100643.31;;;5.54;75.00
59063;BME280;44851;45.648;9.004;2022-12-18T09:28:14;100648.50;;;5.54;73.23
59063;BME280;44851;45.648;9.004;2022-12-18T09:30:42;100641.50;;;5.56;71.12
59063;BME280;44851;45.648;9.004;2022-12-18T09:33:08;100642.25;;;5.58;73.82
59063;BME280;44851;45.648;9.004;2022-12-18T09:35:37;100637.88;;;5.60;71.42
59063;BME280;44851;45.648;9.004;2022-12-18T09:38:03;100645.00;;;5.55;70.50
59063;BME280;44851;45.648;9.004;2022-12-18T09:40:35;100638.00;;;5.57;70.17
59063;BME280;44851;45.648;9.004;2022-12-18T09:43:04;100640.13;;;5.68;70.59
59063;BME280;44851;45.648;9.004;2022-12-18T09:45:43;100641.75;;;5.71;71.74
59063;BME280;44851;45.648;9.004;2022-12-18T09:48:20;100645.28;;;5.68;71.81
59063;BME280;44851;45.648;9.004;2022-12-18T09:50:48;100649.28;;;5.75;70.14
59063;BME280;44851;45.648;9.004;2022-12-18T09:53:19;100640.69;;;5.75;69.37
59063;BME280;44851;45.648;9.004;2022-12-18T09:55:48;100639.78;;;5.76;69.18
59063;BME280;44851;45.648;9.004;2022-12-18T09:58:24;100635.19;;;5.82;68.87
59063;BME280;44851;45.648;9.004;2022-12-18T10:00:52;100635.88;;;5.86;68.35
59063;BME280;44851;45.648;9.004;2022-12-18T10:03:18;100638.22;;;5.92;71.94
59063;BME280;44851;45.648;9.004;2022-12-18T10:08:36;100633.53;;;6.00;69.12
59063;BME280;44851;45.648;9.004;2022-12-18T10:11:20;100641.91;;;6.05;69.22
59063;BME280;44851;45.648;9.004;2022-12-18T10:14:14;100640.72;;;6.12;68.62
59063;BME280;44851;45.648;9.004;2022-12-18T10:24:58;100624.19;;;6.34;68.11
59063;BME280;44851;45.648;9.004;2022-12-18T10:27:26;100625.88;;;6.35;68.08
59063;BME280;44851;45.648;9.004;2022-12-18T10:29:53;100627.25;;;6.42;65.96
59063;BME280;44851;45.648;9.004;2022-12-18T10:32:24;100635.53;;;6.50;66.71
59063;BME280;44851;45.648;9.004;2022-12-18T10:34:52;100633.38;;;6.58;67.54
59063;BME280;44851;45.648;9.004;2022-12-18T10:37:21;100630.50;;;6.64;67.52
59063;BME280;44851;45.648;9.004;2022-12-18T10:40:14;100626.22;;;6.63;63.75
59063;BME280;44851;45.648;9.004;2022-12-18T10:42:40;100626.09;;;6.66;65.50
59063;BME280;44851;45.648;9.004;2022-12-18T10:45:12;100635.03;;;6.78;66.98
59063;BME280;44851;45.648;9.004;2022-12-18T10:47:48;100639.91;;;6.84;67.42
59063;BME280;44851;45.648;9.004;2022-12-18T10:50:27;100645.78;;;6.88;67.54
59063;BME280;44851;45.648;9.004;2022-12-18T10:52:58;100646.66;;;6.87;68.13
59063;BME280;44851;45.648;9.004;2022-12-18T10:55:32;100646.53;;;6.90;67.77
59063;BME280;44851;45.648;9.004;2022-12-18T10:58:16;100647.91;;;6.80;66.38
59063;BME280;44851;45.648;9.004;2022-12-18T11:00:42;100639.47;;;6.93;68.73
59063;BME280;44851;45.648;9.004;2022-12-18T11:04:28;100642.56;;;6.83;67.05
59063;BME280;44851;45.648;9.004;2022-12-18T11:06:23;100643.63;;;6.96;69.16
59063;BME280;44851;45.648;9.004;2022-12-18T11:11:24;100641.22;;;6.93;69.54
59063;BME280;44851;45.648;9.004;2022-12-18T11:14:03;100646.22;;;6.79;67.15
59063;BME280;44851;45.648;9.004;2022-12-18T11:16:34;100642.72;;;6.80;70.13
59063;BME280;44851;45.648;9.004;2022-12-18T11:19:21;100643.31;;;6.67;68.07
59063;BME280;44851;45.648;9.004;2022-12-18T11:21:50;100646.66;;;6.69;70.95
59063;BME280;44851;45.648;9.004;2022-12-18T11:24:22;100644.84;;;6.72;71.43
59063;BME280;44851;45.648;9.004;2022-12-18T11:26:49;100651.50;;;6.77;71.78
59063;BME280;44851;45.648;9.004;2022-12-18T11:29:31;100651.84;;;6.69;71.42
59063;BME280;44851;45.648;9.004;2022-12-18T11:32:24;100651.00;;;6.69;70.14
59063;BME280;44851;45.648;9.004;2022-12-18T11:35:16;100652.63;;;6.72;70.37
59063;BME280;44851;45.648;9.004;2022-12-18T11:37:48;100643.72;;;6.77;71.74
59063;BME280;44851;45.648;9.004;2022-12-18T11:40:20;100640.88;;;6.82;70.75
59063;BME280;44851;45.648;9.004;2022-12-18T11:42:59;100637.22;;;6.86;70.01
59063;BME280;44851;45.648;9.004;2022-12-18T11:45:30;100635.09;;;6.94;71.31
59063;BME280;44851;45.648;9.004;2022-12-18T11:48:04;100626.78;;;6.87;70.47
59063;BME280;44851;45.648;9.004;2022-12-18T11:50:56;100628.25;;;6.93;69.59
59063;BME280;44851;45.648;9.004;2022-12-18T11:53:24;100627.38;;;6.92;70.83
59063;BME280;44851;45.648;9.004;2022-12-18T11:55:59;100627.63;;;6.88;70.87
59063;BME280;44851;45.648;9.004;2022-12-18T11:58:46;100623.50;;;7.01;70.53
59063;BME280;44851;45.648;9.004;2022-12-18T12:12:28;100590.38;;;7.24;69.90
59063;BME280;44851;45.648;9.004;2022-12-18T12:24:26;100595.97;;;7.49;68.61
59063;BME280;44851;45.648;9.004;2022-12-18T12:39:42;100578.81;;;7.80;67.44
59063;BME280;44851;45.648;9.004;2022-12-18T12:42:38;100587.78;;;7.74;67.08
59063;BME280;44851;45.648;9.004;2022-12-18T12:45:29;100581.88;;;7.70;68.43
59063;BME280;44851;45.648;9.004;2022-12-18T12:47:59;100584.78;;;7.64;68.34
59063;BME280;44851;45.648;9.004;2022-12-18T12:50:27;100582.28;;;7.63;69.07
59063;BME280;44851;45.648;9.004;2022-12-18T12:52:55;100581.09;;;7.53;68.92
59063;BME280;44851;45.648;9.004;2022-12-18T12:55:24;100582.25;;;7.47;69.93
59063;BME280;44851;45.648;9.004;2022-12-18T12:58:17;100581.22;;;7.34;67.77
59063;BME280;44851;45.648;9.004;2022-12-18T13:00:53;100579.09;;;7.58;69.57
59063;BME280;44851;45.648;9.004;2022-12-18T13:09:01;100568.59;;;7.77;68.55
59063;BME280;44851;45.648;9.004;2022-12-18T13:20:02;100580.41;;;7.49;66.96
59063;BME280;44851;45.648;9.004;2022-12-18T13:22:33;100578.56;;;7.51;68.17
59063;BME280;44851;45.648;9.004;2022-12-18T13:24:59;100573.69;;;7.45;68.56
59063;BME280;44851;45.648;9.004;2022-12-18T13:38:36;100555.31;;;7.65;67.79
59063;BME280;44851;45.648;9.004;2022-12-18T13:43:47;100545.16;;;7.78;66.63
59063;BME280;44851;45.648;9.004;2022-12-18T13:46:25;100549.19;;;7.84;66.60
59063;BME280;44851;45.648;9.004;2022-12-18T13:48:59;100543.66;;;7.90;66.74
59063;BME280;44851;45.648;9.004;2022-12-18T13:51:26;100549.34;;;7.81;66.32
59063;BME280;44851;45.648;9.004;2022-12-18T13:54:00;100539.97;;;7.94;65.42
59063;BME280;44851;45.648;9.004;2022-12-18T13:56:31;100542.63;;;7.92;66.62
59063;BME280;44851;45.648;9.004;2022-12-18T14:01:58;100541.88;;;7.75;66.11
59063;BME280;44851;45.648;9.004;2022-12-18T14:04:31;100549.78;;;7.71;66.74
59063;BME280;44851;45.648;9.004;2022-12-18T14:07:10;100564.38;;;7.58;68.04
59063;BME280;44851;45.648;9.004;2022-12-18T14:09:41;100559.50;;;7.52;67.95
59063;BME280;44851;45.648;9.004;2022-12-18T14:12:15;100564.69;;;7.52;66.61
59063;BME280;44851;45.648;9.004;2022-12-18T14:15:05;100568.50;;;7.45;67.81
59063;BME280;44851;45.648;9.004;2022-12-18T14:17:31;100574.72;;;7.42;68.16
59063;BME280;44851;45.648;9.004;2022-12-18T14:19:57;100571.34;;;7.40;67.80
59063;BME280;44851;45.648;9.004;2022-12-18T14:22:26;100563.88;;;7.34;67.61
59063;BME280;44851;45.648;9.004;2022-12-18T14:25:29;100563.09;;;7.16;66.89
59063;BME280;44851;45.648;9.004;2022-12-18T14:30:39;100569.03;;;7.18;67.59
59063;BME280;44851;45.648;9.004;2022-12-18T14:33:26;100567.13;;;7.22;67.75
59063;BME280;44851;45.648;9.004;2022-12-18T14:41:12;100584.44;;;7.21;67.50
59063;BME280;44851;45.648;9.004;2022-12-18T14:43:40;100596.06;;;7.14;68.06
59063;BME280;44851;45.648;9.004;2022-12-18T14:46:38;100587.81;;;7.06;66.96
59063;BME280;44851;45.648;9.004;2022-12-18T14:49:24;100587.31;;;7.00;68.13
59063;BME280;44851;45.648;9.004;2022-12-18T14:51:56;100583.25;;;6.94;69.30
59063;BME280;44851;45.648;9.004;2022-12-18T14:54:27;100582.88;;;6.84;69.65
59063;BME280;44851;45.648;9.004;2022-12-18T14:59:26;100583.72;;;6.85;70.13
59063;BME280;44851;45.648;9.004;2022-12-18T15:04:46;100583.84;;;6.82;71.01
59063;BME280;44851;45.648;9.004;2022-12-18T15:07:22;100585.41;;;6.68;69.29
59063;BME280;44851;45.648;9.004;2022-12-18T15:10:22;100585.69;;;6.62;69.23
59063;BME280;44851;45.648;9.004;2022-12-18T15:13:07;100589.56;;;6.54;70.14